Time;durP1;ratioP1;P1;durP2;ratioP2;P2;SDS_P1;SDS_P2;PMS_P1;PMS_P2;Temp;Humidity;BMP_temperature;BMP_pressure;BME280_temperature;BME280_humidity;BME280_pressure;Samples;Min_cycle;Max_cycle;Signal;HPM_P1;HPM_P2
2023/12/02 00:01:15;;;;;;;4.77;1.80;;;24.10;70.20;;;;;;4982804;28;20543;-74
2023/12/02 00:03:42;;;;;;;5.37;2.07;;;24.10;70.20;;;;;;4983520;28;20249;-75
2023/12/02 00:06:10;;;;;;;8.27;2.10;;;24.20;69.30;;;;;;4980538;28;20241;-74
2023/12/02 00:08:37;;;;;;;8.37;2.00;;;23.90;70.60;;;;;;4990874;28;20193;-74
2023/12/02 00:11:04;;;;;;;5.20;1.63;;;23.90;70.50;;;;;;4994655;28;20221;-75
2023/12/02 00:13:32;;;;;;;4.40;2.20;;;24.00;71.00;;;;;;4995306;28;20272;-72
2023/12/02 00:15:59;;;;;;;4.63;1.63;;;24.10;69.10;;;;;;4994930;28;20189;-74
2023/12/02 00:18:26;;;;;;;5.43;1.50;;;23.90;69.00;;;;;;4994314;28;20183;-75
2023/12/02 00:20:53;;;;;;;3.23;1.53;;;24.00;68.80;;;;;;4995399;28;20182;-75
2023/12/02 00:23:21;;;;;;;4.47;1.60;;;24.30;69.50;;;;;;4995125;28;20178;-75
2023/12/02 00:25:48;;;;;;;5.23;1.70;;;24.60;68.20;;;;;;4994566;28;20221;-74
2023/12/02 00:28:15;;;;;;;6.13;1.93;;;24.80;67.30;;;;;;4994305;28;20313;-75
2023/12/02 00:30:43;;;;;;;7.80;2.13;;;25.20;66.80;;;;;;4994930;28;20590;-75
2023/12/02 00:33:10;;;;;;;4.33;1.67;;;25.20;66.60;;;;;;4989540;28;20186;-70
2023/12/02 00:35:37;;;;;;;3.80;1.63;;;25.20;65.60;;;;;;4994437;28;20178;-74
2023/12/02 00:38:05;;;;;;;4.57;1.77;;;24.90;66.30;;;;;;5004699;28;20184;-71
2023/12/02 00:40:32;;;;;;;7.33;1.53;;;25.00;64.60;;;;;;5004008;28;20197;-72
2023/12/02 00:42:59;;;;;;;3.47;1.60;;;25.20;66.10;;;;;;4991602;28;20174;-72
2023/12/02 00:45:26;;;;;;;7.40;1.40;;;25.20;65.60;;;;;;4994243;28;20214;-70
2023/12/02 00:47:54;;;;;;;7.50;2.03;;;25.40;64.80;;;;;;4994344;28;20170;-74
2023/12/02 00:50:21;;;;;;;3.97;1.63;;;25.30;64.50;;;;;;4994301;28;20206;-73
2023/12/02 00:52:49;;;;;;;6.73;1.70;;;25.60;64.30;;;;;;4993372;28;20280;-68
2023/12/02 00:55:16;;;;;;;5.50;1.57;;;25.80;62.80;;;;;;4993866;28;20174;-75
2023/12/02 00:57:43;;;;;;;5.87;1.90;;;25.80;62.50;;;;;;4988428;28;20182;-73
2023/12/02 01:00:11;;;;;;;6.17;1.70;;;25.60;64.10;;;;;;4988716;28;20178;-70
2023/12/02 01:02:38;;;;;;;7.30;2.20;;;25.50;64.40;;;;;;4993797;28;20186;-70
2023/12/02 01:05:06;;;;;;;5.97;1.70;;;25.70;63.30;;;;;;4994212;28;20687;-69
2023/12/02 01:07:33;;;;;;;4.60;2.00;;;25.60;63.60;;;;;;4994363;28;20182;-72
2023/12/02 01:10:01;;;;;;;4.20;1.60;;;25.50;64.30;;;;;;4994083;28;20248;-73
2023/12/02 01:12:28;;;;;;;7.50;2.10;;;25.40;65.00;;;;;;4992574;28;20595;-74
2023/12/02 01:14:56;;;;;;;5.60;1.83;;;25.30;65.50;;;;;;4987268;28;20183;-75
2023/12/02 01:17:23;;;;;;;8.30;2.00;;;25.30;65.00;;;;;;4989265;28;20185;-75
2023/12/02 01:19:50;;;;;;;6.23;2.00;;;25.50;65.40;;;;;;4991049;28;20182;-74
2023/12/02 01:22:17;;;;;;;4.20;1.63;;;25.80;64.50;;;;;;4994022;28;20182;-74
2023/12/02 01:24:45;;;;;;;4.43;1.73;;;25.70;64.50;;;;;;4993885;28;20189;-75
2023/12/02 01:27:12;;;;;;;4.17;1.67;;;25.90;64.00;;;;;;4993481;28;20237;-72
2023/12/02 01:29:39;;;;;;;5.20;1.50;;;26.30;63.70;;;;;;4993738;28;20189;-74
2023/12/02 01:32:07;;;;;;;4.83;1.70;;;26.50;62.10;;;;;;4992776;28;20228;-76
2023/12/02 01:34:34;;;;;;;5.93;1.93;;;26.40;61.00;;;;;;4994026;28;20181;-75
2023/12/02 01:37:01;;;;;;;4.40;1.67;;;26.00;62.30;;;;;;4991666;28;20198;-71
2023/12/02 01:39:29;;;;;;;5.90;1.93;;;26.00;63.20;;;;;;4993129;28;20247;-75
2023/12/02 01:41:56;;;;;;;4.43;1.60;;;26.10;62.90;;;;;;4993425;28;20185;-73
2023/12/02 01:44:23;;;;;;;6.40;1.87;;;26.20;62.50;;;;;;4991915;28;20552;-74
2023/12/02 01:46:51;;;;;;;8.53;2.00;;;26.30;63.30;;;;;;4989122;28;20189;-75
2023/12/02 01:49:20;;;;;;;9.27;2.33;;;26.40;63.80;;;;;;4990825;28;20187;-74
2023/12/02 01:51:48;;;;;;;5.97;2.03;;;26.80;64.80;;;;;;4992966;28;20205;-75
2023/12/02 01:54:17;;;;;;;13.47;2.60;;;26.90;63.20;;;;;;4993449;28;20632;-75
2023/12/02 01:56:44;;;;;;;14.03;2.53;;;26.40;65.10;;;;;;4991645;28;20189;-73
2023/12/02 01:59:13;;;;;;;7.83;2.13;;;26.60;64.80;;;;;;4991428;28;20174;-74
2023/12/02 02:01:40;;;;;;;4.17;1.70;;;26.60;63.70;;;;;;4991081;28;20197;-74
2023/12/02 02:04:08;;;;;;;6.93;2.10;;;26.50;64.60;;;;;;4985040;28;20194;-74
2023/12/02 02:06:35;;;;;;;5.07;1.70;;;26.40;65.10;;;;;;4990093;28;20582;-74
2023/12/02 02:09:04;;;;;;;9.70;2.40;;;26.50;65.20;;;;;;4985642;28;20180;-74
2023/12/02 02:11:31;;;;;;;6.83;1.90;;;26.30;65.30;;;;;;4975763;28;20676;-74
2023/12/02 02:13:58;;;;;;;7.73;2.10;;;26.40;63.40;;;;;;4990805;28;20253;-72
2023/12/02 02:16:26;;;;;;;12.27;2.20;;;26.10;66.30;;;;;;4978817;28;20183;-70
2023/12/02 02:18:53;;;;;;;8.20;2.50;;;26.60;64.60;;;;;;4975967;28;20276;-70
2023/12/02 02:21:24;;;;;;;7.97;2.60;;;26.70;63.80;;;;;;4980693;28;20190;-72
2023/12/02 02:23:51;;;;;;;8.70;1.97;;;26.70;63.40;;;;;;4984629;28;20228;-73
2023/12/02 02:26:18;;;;;;;8.23;2.30;;;26.60;63.70;;;;;;4991230;28;20181;-71
2023/12/02 02:28:45;;;;;;;8.03;2.40;;;26.60;63.70;;;;;;4981702;28;20629;-72
2023/12/02 02:31:13;;;;;;;6.87;2.20;;;26.30;65.20;;;;;;4984176;28;20206;-74
2023/12/02 02:33:40;;;;;;;11.10;2.53;;;26.40;64.40;;;;;;4980283;28;20277;-70
2023/12/02 02:36:08;;;;;;;6.73;2.03;;;26.40;65.70;;;;;;4987976;28;20186;-73
2023/12/02 02:38:35;;;;;;;10.20;2.73;;;26.40;64.30;;;;;;4979697;28;20190;-73
2023/12/02 02:41:02;;;;;;;9.17;2.90;;;26.40;65.00;;;;;;4984778;28;20655;-74
2023/12/02 02:43:30;;;;;;;6.57;2.03;;;26.50;64.10;;;;;;4986128;28;20186;-73
2023/12/02 02:45:58;;;;;;;7.00;2.70;;;26.30;64.30;;;;;;4982272;28;20186;-72
2023/12/02 02:48:25;;;;;;;6.30;2.20;;;26.50;64.80;;;;;;4979882;28;20237;-72
2023/12/02 02:50:52;;;;;;;4.97;2.40;;;26.20;65.40;;;;;;4989110;28;20206;-71
2023/12/02 02:53:19;;;;;;;6.60;2.23;;;26.20;65.80;;;;;;4990269;28;20641;-73
2023/12/02 02:55:47;;;;;;;10.53;2.40;;;26.00;66.20;;;;;;4990393;28;20599;-70
2023/12/02 02:58:14;;;;;;;7.90;2.07;;;25.90;66.60;;;;;;4975167;28;20555;-72
2023/12/02 03:00:42;;;;;;;4.53;1.80;;;26.00;66.00;;;;;;4982107;28;20197;-72
2023/12/02 03:03:09;;;;;;;5.97;1.83;;;26.00;65.90;;;;;;4979878;28;20189;-75
2023/12/02 03:05:36;;;;;;;5.13;1.60;;;26.00;66.10;;;;;;4983210;28;20182;-73
2023/12/02 03:08:04;;;;;;;3.33;1.70;;;26.10;65.90;;;;;;4982516;28;20228;-74
2023/12/02 03:10:31;;;;;;;7.40;2.07;;;26.00;66.30;;;;;;4980129;28;20214;-72
2023/12/02 03:12:58;;;;;;;2.57;1.77;;;25.90;65.90;;;;;;4980011;28;20278;-71
2023/12/02 03:15:26;;;;;;;5.70;2.20;;;25.90;65.90;;;;;;4987913;28;20182;-71
2023/12/02 03:17:53;;;;;;;5.43;1.93;;;25.80;66.20;;;;;;4988249;28;20182;-72
2023/12/02 03:20:21;;;;;;;10.10;1.90;;;25.60;66.70;;;;;;4995088;28;20182;-69
2023/12/02 03:22:48;;;;;;;5.27;1.90;;;25.50;66.60;;;;;;4975060;28;20191;-72
2023/12/02 03:25:15;;;;;;;6.87;1.77;;;25.50;67.10;;;;;;4983602;28;20239;-73
2023/12/02 03:27:42;;;;;;;6.50;1.87;;;25.50;67.10;;;;;;4981584;28;20736;-73
2023/12/02 03:30:13;;;;;;;7.67;1.80;;;25.60;67.00;;;;;;4984173;28;20695;-74
2023/12/02 03:32:41;;;;;;;5.00;1.57;;;25.40;66.50;;;;;;4992793;28;20285;-73
2023/12/02 03:35:09;;;;;;;4.70;1.70;;;25.30;67.40;;;;;;4990989;28;20174;-72
2023/12/02 03:37:37;;;;;;;4.17;1.67;;;25.30;67.90;;;;;;4980736;28;20691;-72
2023/12/02 03:40:10;;;;;;;6.23;1.87;;;25.20;67.90;;;;;;4983227;28;20185;-69
2023/12/02 03:42:37;;;;;;;7.27;1.77;;;25.20;68.20;;;;;;4988153;28;20195;-70
2023/12/02 03:45:06;;;;;;;6.07;1.80;;;25.20;68.10;;;;;;4983143;28;20190;-71
2023/12/02 03:47:34;;;;;;;6.57;1.90;;;25.30;68.10;;;;;;4983172;28;20245;-71
2023/12/02 03:50:01;;;;;;;4.67;1.73;;;25.30;69.10;;;;;;4986724;28;20277;-69
2023/12/02 03:52:28;;;;;;;6.90;1.70;;;25.50;68.60;;;;;;4994185;28;20213;-72
2023/12/02 03:54:57;;;;;;;6.60;1.93;;;25.60;67.40;;;;;;4982127;28;20186;-70
2023/12/02 03:57:24;;;;;;;6.73;1.53;;;25.60;67.00;;;;;;4979360;28;20278;-69
2023/12/02 03:59:52;;;;;;;3.37;1.33;;;25.60;67.00;;;;;;4979274;28;20178;-72
2023/12/02 04:02:19;;;;;;;2.60;1.30;;;25.60;66.80;;;;;;4982922;28;20198;-72
2023/12/02 04:04:46;;;;;;;5.80;1.90;;;25.60;67.30;;;;;;4983283;28;20248;-69
2023/12/02 04:07:14;;;;;;;7.13;1.80;;;25.50;67.10;;;;;;4982566;28;20236;-72
2023/12/02 04:09:43;;;;;;;4.43;1.87;;;25.50;66.90;;;;;;4982831;28;20249;-69
2023/12/02 04:12:10;;;;;;;3.73;1.70;;;25.60;67.30;;;;;;4988812;28;20711;-74
2023/12/02 04:14:37;;;;;;;5.10;1.77;;;25.50;66.90;;;;;;4991795;28;20181;-74
2023/12/02 04:17:05;;;;;;;6.67;1.87;;;25.20;68.50;;;;;;4993881;28;20221;-71
2023/12/02 04:19:33;;;;;;;6.57;2.00;;;25.30;68.50;;;;;;4978374;28;20178;-70
2023/12/02 04:22:00;;;;;;;11.97;1.93;;;25.30;68.40;;;;;;4991086;28;20182;-69
2023/12/02 04:24:28;;;;;;;7.70;2.03;;;25.30;69.20;;;;;;4983915;28;20183;-70
2023/12/02 04:26:56;;;;;;;3.90;1.83;;;25.30;69.00;;;;;;4987212;28;20182;-69
2023/12/02 04:29:23;;;;;;;3.63;1.53;;;25.30;69.00;;;;;;4990523;28;20194;-71
2023/12/02 04:31:50;;;;;;;6.07;2.00;;;25.30;69.20;;;;;;4990609;28;20214;-73
2023/12/02 04:34:18;;;;;;;3.33;1.53;;;25.00;69.40;;;;;;4976134;28;20657;-75
2023/12/02 04:36:46;;;;;;;6.90;1.97;;;25.30;69.00;;;;;;4989034;28;20554;-70
2023/12/02 04:39:13;;;;;;;6.80;1.93;;;26.30;65.40;;;;;;4990700;28;20552;-73
2023/12/02 04:41:41;;;;;;;7.47;1.70;;;27.50;62.60;;;;;;4990795;28;20197;-75
2023/12/02 04:44:08;;;;;;;4.93;1.37;;;27.60;61.10;;;;;;4978081;28;20181;-69
2023/12/02 04:46:35;;;;;;;3.87;1.77;;;27.40;61.80;;;;;;4982241;28;20198;-70
2023/12/02 04:49:03;;;;;;;6.57;1.70;;;27.50;61.80;;;;;;4990597;28;20682;-70
2023/12/02 04:51:30;;;;;;;5.70;1.57;;;26.90;63.90;;;;;;4979150;28;20237;-69
2023/12/02 04:53:58;;;;;;;7.40;1.80;;;26.80;63.60;;;;;;4994472;28;20182;-69
2023/12/02 04:56:25;;;;;;;7.03;1.63;;;26.30;65.50;;;;;;4979889;28;20217;-69
2023/12/02 04:58:52;;;;;;;5.10;1.53;;;26.20;65.70;;;;;;4989651;28;20549;-69
2023/12/02 05:01:19;;;;;;;6.23;1.80;;;26.30;65.00;;;;;;4979521;28;20277;-69
2023/12/02 05:03:47;;;;;;;6.17;1.90;;;25.90;66.20;;;;;;4983781;28;20241;-68
2023/12/02 05:06:15;;;;;;;5.77;1.80;;;25.80;67.80;;;;;;4992525;28;20189;-68
2023/12/02 05:08:44;;;;;;;5.17;1.67;;;25.50;68.20;;;;;;4992767;28;20515;-68
2023/12/02 05:11:20;;;;;;;2.97;1.50;;;25.30;68.80;;;;;;4982867;28;20258;-69
2023/12/02 05:13:48;;;;;;;5.33;1.80;;;25.20;69.60;;;;;;4983069;28;20249;-70
2023/12/02 05:16:16;;;;;;;7.03;2.00;;;25.20;69.50;;;;;;4990827;28;20217;-68
2023/12/02 05:18:43;;;;;;;7.13;2.00;;;25.00;70.40;;;;;;4991546;28;20641;-68
2023/12/02 05:21:11;;;;;;;6.63;1.90;;;24.90;70.30;;;;;;4988827;28;20174;-69
2023/12/02 05:23:41;;;;;;;8.07;2.07;;;24.80;70.40;;;;;;4983467;28;20185;-70
2023/12/02 05:26:08;;;;;;;8.67;1.83;;;24.60;70.80;;;;;;4988952;28;20218;-71
2023/12/02 05:28:36;;;;;;;5.37;1.73;;;24.60;71.20;;;;;;4987198;28;20229;-69
2023/12/02 05:31:04;;;;;;;8.73;1.77;;;24.50;72.20;;;;;;4979642;28;20210;-74
2023/12/02 05:33:31;;;;;;;8.77;2.07;;;24.50;72.20;;;;;;4989298;28;20213;-74
2023/12/02 05:35:58;;;;;;;10.47;2.97;;;24.40;71.70;;;;;;4990423;28;20190;-71
2023/12/02 05:38:26;;;;;;;6.43;1.63;;;24.80;71.80;;;;;;4982189;28;20174;-72
2023/12/02 05:40:53;;;;;;;4.43;1.70;;;24.70;72.00;;;;;;4982369;28;20185;-72
2023/12/02 05:43:20;;;;;;;6.93;1.93;;;24.90;70.70;;;;;;4990532;28;20570;-70
2023/12/02 05:45:48;;;;;;;5.03;1.63;;;24.80;71.00;;;;;;4983472;28;20193;-69
2023/12/02 05:48:15;;;;;;;9.87;1.90;;;24.90;70.80;;;;;;4979287;28;20325;-68
2023/12/02 05:50:42;;;;;;;8.43;1.70;;;24.90;71.20;;;;;;4988956;28;20213;-69
2023/12/02 05:53:09;;;;;;;9.30;2.13;;;24.60;71.60;;;;;;4993630;28;20185;-69
2023/12/02 05:55:37;;;;;;;5.27;1.87;;;24.70;72.00;;;;;;4990532;28;20183;-69
2023/12/02 05:58:04;;;;;;;3.80;1.87;;;24.60;72.50;;;;;;4977658;28;20250;-70
2023/12/02 06:00:35;;;;;;;5.10;1.70;;;24.70;72.10;;;;;;4985427;28;20788;-69
2023/12/02 06:03:05;;;;;;;5.27;2.00;;;24.60;72.10;;;;;;4984899;28;20682;-71
2023/12/02 06:05:32;;;;;;;7.40;1.90;;;24.60;72.20;;;;;;4990455;28;20193;-68
2023/12/02 06:07:59;;;;;;;6.87;2.30;;;24.60;72.50;;;;;;4990563;28;20667;-71
2023/12/02 06:10:27;;;;;;;8.10;1.70;;;24.40;73.20;;;;;;4988723;28;20194;-71
2023/12/02 06:12:54;;;;;;;7.03;1.90;;;24.50;73.40;;;;;;4992774;28;20222;-68
2023/12/02 06:15:21;;;;;;;4.17;1.60;;;24.60;72.70;;;;;;4993416;28;20182;-75
2023/12/02 06:17:49;;;;;;;7.77;1.93;;;24.80;72.60;;;;;;4993006;28;20182;-74
2023/12/02 06:20:16;;;;;;;5.90;1.60;;;25.80;69.20;;;;;;4990675;28;20187;-72
2023/12/02 06:22:43;;;;;;;4.13;1.70;;;26.10;68.60;;;;;;4992164;28;20189;-71
2023/12/02 06:25:10;;;;;;;4.13;1.53;;;26.40;67.30;;;;;;4976572;28;20183;-72
2023/12/02 06:27:38;;;;;;;7.93;1.70;;;26.90;66.10;;;;;;4992967;28;20279;-73
2023/12/02 06:30:06;;;;;;;8.50;2.07;;;27.30;65.10;;;;;;4990889;28;20213;-74
2023/12/02 06:32:33;;;;;;;6.43;1.83;;;27.00;64.70;;;;;;4988604;28;20225;-73
2023/12/02 06:35:00;;;;;;;3.97;1.70;;;26.60;67.10;;;;;;4980788;28;20173;-74
2023/12/02 06:37:27;;;;;;;5.87;1.63;;;26.20;68.00;;;;;;4988381;28;20182;-73
2023/12/02 06:39:55;;;;;;;4.67;1.80;;;26.10;68.60;;;;;;4992924;28;20166;-75
2023/12/02 06:42:22;;;;;;;6.23;1.90;;;26.10;67.40;;;;;;4982657;28;20237;-75
2023/12/02 06:44:49;;;;;;;7.87;1.90;;;25.70;69.20;;;;;;4990783;28;20201;-73
2023/12/02 06:47:17;;;;;;;10.17;2.03;;;25.20;70.70;;;;;;4988863;28;20237;-69
2023/12/02 06:49:44;;;;;;;7.07;2.00;;;24.80;72.60;;;;;;4986200;28;20246;-69
2023/12/02 06:52:11;;;;;;;5.73;1.87;;;24.40;73.80;;;;;;4992593;28;20214;-70
2023/12/02 06:54:39;;;;;;;7.00;2.10;;;24.30;74.60;;;;;;4996634;28;20663;-72
2023/12/02 06:57:07;;;;;;;7.50;1.90;;;24.90;73.90;;;;;;4992011;28;20714;-68
2023/12/02 06:59:35;;;;;;;4.50;1.90;;;25.30;71.80;;;;;;4981538;28;20213;-70
2023/12/02 07:02:02;;;;;;;9.27;2.50;;;25.00;72.60;;;;;;4989380;28;20504;-68
2023/12/02 07:04:29;;;;;;;12.63;2.83;;;24.60;74.20;;;;;;4992119;28;20197;-71
2023/12/02 07:06:57;;;;;;;6.67;2.10;;;24.40;75.30;;;;;;4996481;28;20189;-68
2023/12/02 07:09:24;;;;;;;7.30;2.13;;;24.60;76.30;;;;;;4990524;28;20180;-69
2023/12/02 07:11:51;;;;;;;5.40;2.10;;;24.50;76.00;;;;;;4989933;28;20217;-69
2023/12/02 07:14:18;;;;;;;8.27;2.23;;;24.30;76.50;;;;;;4996370;28;20749;-73
2023/12/02 07:16:46;;;;;;;9.50;2.10;;;24.30;77.40;;;;;;4996658;28;20544;-66
2023/12/02 07:19:13;;;;;;;8.23;2.43;;;24.20;77.50;;;;;;4996182;28;20174;-70
2023/12/02 07:21:41;;;;;;;7.20;2.37;;;24.10;77.90;;;;;;4993896;28;20208;-69
2023/12/02 07:24:09;;;;;;;8.70;2.90;;;24.00;78.10;;;;;;4996377;28;20232;-70
2023/12/02 07:26:36;;;;;;;9.13;2.20;;;23.90;78.60;;;;;;4989755;28;20201;-70
2023/12/02 07:29:03;;;;;;;6.20;2.23;;;23.80;79.00;;;;;;4989976;28;20190;-71
2023/12/02 07:31:31;;;;;;;12.00;2.57;;;23.60;78.70;;;;;;4976753;28;20591;-70
2023/12/02 07:33:58;;;;;;;6.27;2.17;;;23.40;79.70;;;;;;4995081;28;20249;-72
2023/12/02 07:36:25;;;;;;;7.80;2.23;;;23.40;80.00;;;;;;4994354;28;20190;-72
2023/12/02 07:38:53;;;;;;;7.10;2.10;;;23.40;79.70;;;;;;4994159;28;20185;-71
2023/12/02 07:41:20;;;;;;;4.97;2.00;;;23.50;80.10;;;;;;4994809;28;20667;-69
2023/12/02 07:43:47;;;;;;;7.33;2.17;;;23.40;80.30;;;;;;4989914;28;20269;-74
2023/12/02 07:46:15;;;;;;;9.80;2.60;;;23.30;80.70;;;;;;4992108;28;20170;-75
2023/12/02 07:48:42;;;;;;;9.27;2.80;;;23.30;80.70;;;;;;4990259;28;20611;-72
2023/12/02 07:51:09;;;;;;;9.37;2.57;;;23.40;80.70;;;;;;4991964;28;20217;-74
2023/12/02 07:53:37;;;;;;;3.97;2.20;;;23.30;80.40;;;;;;4996181;28;20174;-72
2023/12/02 07:56:05;;;;;;;6.83;2.23;;;23.30;80.90;;;;;;4978661;28;20210;-71
2023/12/02 07:58:32;;;;;;;7.13;2.20;;;23.20;81.20;;;;;;4995854;28;20224;-72
2023/12/02 08:01:00;;;;;;;11.93;2.80;;;23.10;81.30;;;;;;4995183;28;20178;-72
2023/12/02 08:03:27;;;;;;;6.47;2.50;;;23.00;81.60;;;;;;4993995;28;20654;-74
2023/12/02 08:05:54;;;;;;;8.53;2.20;;;23.00;82.00;;;;;;4995505;28;20221;-75
2023/12/02 08:08:22;;;;;;;8.47;2.30;;;23.00;82.00;;;;;;4995217;28;20683;-72
2023/12/02 08:10:49;;;;;;;7.07;2.23;;;23.00;82.10;;;;;;4982890;28;20269;-74
2023/12/02 08:13:16;;;;;;;7.47;2.43;;;22.90;82.50;;;;;;4992797;28;20194;-73
2023/12/02 08:15:44;;;;;;;6.40;2.23;;;22.90;82.40;;;;;;4995483;28;20173;-71
2023/12/02 08:18:11;;;;;;;7.80;2.30;;;22.90;82.40;;;;;;4986973;28;20269;-70
2023/12/02 08:20:38;;;;;;;8.00;2.50;;;22.80;82.80;;;;;;4989978;28;20289;-72
2023/12/02 08:23:05;;;;;;;5.83;2.03;;;22.70;83.10;;;;;;4981914;28;20646;-71
2023/12/02 08:25:33;;;;;;;7.80;3.00;;;22.50;83.70;;;;;;4992170;28;20633;-70
2023/12/02 08:28:00;;;;;;;10.90;3.10;;;22.30;84.40;;;;;;4995134;28;20589;-69
2023/12/02 08:30:27;;;;;;;7.87;2.53;;;22.20;85.00;;;;;;4982978;28;20555;-70
2023/12/02 08:32:54;;;;;;;9.67;2.30;;;22.10;85.20;;;;;;4986204;28;20354;-69
2023/12/02 08:35:22;;;;;;;7.73;2.63;;;22.10;85.30;;;;;;4991773;28;20320;-70
2023/12/02 08:37:49;;;;;;;9.07;2.67;;;22.10;85.80;;;;;;4995501;28;20182;-72
2023/12/02 08:40:17;;;;;;;7.93;2.73;;;22.10;85.70;;;;;;4964543;28;20264;-69
2023/12/02 08:42:44;;;;;;;11.57;2.87;;;22.00;85.60;;;;;;4986016;28;20567;-70
2023/12/02 08:45:11;;;;;;;9.73;2.97;;;22.00;85.70;;;;;;4987149;28;20329;-71
2023/12/02 08:47:39;;;;;;;9.00;2.77;;;21.80;85.50;;;;;;4994851;28;20196;-72
2023/12/02 08:50:07;;;;;;;7.67;2.30;;;21.80;85.50;;;;;;4994457;28;20182;-70
2023/12/02 08:52:34;;;;;;;6.20;2.47;;;21.80;85.40;;;;;;4994621;28;20332;-73
2023/12/02 08:55:01;;;;;;;5.33;2.83;;;21.80;85.40;;;;;;4994115;28;20715;-70
2023/12/02 08:57:29;;;;;;;8.77;3.17;;;21.80;85.20;;;;;;4990677;28;20549;-74
2023/12/02 08:59:56;;;;;;;5.40;2.43;;;21.80;84.90;;;;;;4983674;28;20180;-71
2023/12/02 09:02:23;;;;;;;7.17;3.17;;;21.80;85.00;;;;;;4990892;28;20629;-69
2023/12/02 09:04:50;;;;;;;5.77;2.67;;;21.80;84.90;;;;;;4988986;28;20213;-70
2023/12/02 09:07:18;;;;;;;5.40;2.40;;;21.80;84.70;;;;;;4994006;28;20644;-69
2023/12/02 09:09:45;;;;;;;10.83;3.00;;;21.80;85.10;;;;;;4988525;28;20265;-69
2023/12/02 09:12:12;;;;;;;5.60;2.70;;;21.80;85.20;;;;;;4987658;28;20277;-68
2023/12/02 09:14:40;;;;;;;6.53;2.50;;;21.90;84.80;;;;;;4990447;28;20191;-69
2023/12/02 09:17:45;;;;;;;6.30;2.60;;;21.80;85.00;;;;;;4994095;28;20265;-70
2023/12/02 09:20:46;;;;;;;6.03;2.20;;;21.80;84.90;;;;;;4992525;28;20266;-69
2023/12/02 09:23:16;;;;;;;7.23;2.27;;;21.80;84.90;;;;;;4994047;28;20185;-70
2023/12/02 09:25:44;;;;;;;6.07;2.40;;;21.80;84.90;;;;;;4993784;28;20248;-69
2023/12/02 09:28:29;;;;;;;4.70;2.30;;;21.80;84.90;;;;;;4993043;28;20296;-68
2023/12/02 09:31:10;;;;;;;7.17;2.83;;;21.90;85.00;;;;;;4984309;28;20222;-68
2023/12/02 09:33:38;;;;;;;4.50;2.10;;;21.90;84.80;;;;;;4991293;28;20264;-69
2023/12/02 09:36:07;;;;;;;7.53;2.23;;;21.90;84.00;;;;;;4988482;28;20197;-68
2023/12/02 09:38:34;;;;;;;4.57;1.90;;;21.90;83.90;;;;;;4993609;28;20188;-72
2023/12/02 09:41:33;;;;;;;7.50;2.27;;;21.90;83.60;;;;;;4993234;28;20236;-70
2023/12/02 09:44:23;;;;;;;4.33;2.00;;;21.90;83.50;;;;;;4992692;28;20182;-72
2023/12/02 09:47:06;;;;;;;6.50;2.00;;;21.90;83.30;;;;;;4981767;28;20193;-71
2023/12/02 09:50:01;;;;;;;4.60;2.10;;;21.90;83.50;;;;;;4993948;28;20206;-73
2023/12/02 09:52:49;;;;;;;5.97;2.30;;;21.90;83.50;;;;;;4992640;28;20304;-73
2023/12/02 09:55:30;;;;;;;3.67;2.00;;;22.00;83.80;;;;;;4993429;28;20541;-72
2023/12/02 09:58:24;;;;;;;6.93;2.50;;;21.90;84.20;;;;;;4993588;28;20678;-72
2023/12/02 10:01:07;;;;;;;4.60;1.83;;;22.00;84.30;;;;;;4948411;28;20209;-73
2023/12/02 10:03:46;;;;;;;5.63;2.33;;;22.00;84.30;;;;;;4992171;28;20257;-73
2023/12/02 10:06:16;;;;;;;4.37;2.60;;;22.00;84.20;;;;;;4983245;28;20260;-71
2023/12/02 10:09:10;;;;;;;1.77;1.27;;;22.10;84.10;;;;;;4992527;28;20204;-71
2023/12/02 10:11:55;;;;;;;2.73;1.00;;;21.30;76.60;;;;;;4984691;28;20245;-74
2023/12/02 10:14:25;;;;;;;6.00;2.03;;;21.00;73.90;;;;;;4976810;28;20182;-67
2023/12/02 10:16:57;;;;;;;13.97;3.03;;;20.30;78.40;;;;;;4987962;28;20190;-71
2023/12/02 10:19:38;;;;;;;3.37;1.97;;;19.40;83.10;;;;;;4984719;28;20182;-70
2023/12/02 10:22:09;;;;;;;5.90;1.87;;;18.90;84.70;;;;;;4993104;28;20193;-69
2023/12/02 10:24:58;;;;;;;10.87;3.37;;;18.70;87.00;;;;;;4988927;28;20221;-71
2023/12/02 10:27:29;;;;;;;6.77;2.60;;;18.60;88.40;;;;;;4982178;28;20225;-70
2023/12/02 10:30:17;;;;;;;6.17;2.63;;;18.40;88.80;;;;;;4992567;28;20186;-68
2023/12/02 10:32:56;;;;;;;6.83;2.43;;;18.30;89.60;;;;;;4991094;28;20708;-70
2023/12/02 10:35:32;;;;;;;6.53;2.93;;;18.00;90.20;;;;;;4988222;28;20185;-67
2023/12/02 10:38:21;;;;;;;5.67;3.07;;;17.90;90.60;;;;;;4990613;28;20174;-70
2023/12/02 10:41:30;;;;;;;11.13;4.43;;;17.80;90.70;;;;;;4984134;28;20253;-70
2023/12/02 10:44:03;;;;;;;9.47;3.70;;;18.00;91.80;;;;;;4977582;28;20201;-68
2023/12/02 10:46:33;;;;;;;6.90;3.63;;;17.80;91.40;;;;;;4986230;28;20515;-69
2023/12/02 10:49:02;;;;;;;10.93;4.47;;;17.90;91.80;;;;;;4983074;28;20553;-69
2023/12/02 10:51:31;;;;;;;13.83;4.87;;;17.80;91.90;;;;;;4985908;28;20271;-70
2023/12/02 10:54:04;;;;;;;14.50;5.80;;;17.80;91.90;;;;;;4980217;28;20183;-67
2023/12/02 10:56:35;;;;;;;22.93;6.70;;;17.90;92.30;;;;;;4991455;28;20198;-68
2023/12/02 10:59:04;;;;;;;19.57;5.93;;;17.90;92.40;;;;;;4993113;28;20200;-71
2023/12/02 11:01:54;;;;;;;12.20;5.93;;;17.90;92.20;;;;;;4991126;28;20548;-71
2023/12/02 11:04:28;;;;;;;12.80;6.47;;;17.90;92.60;;;;;;4991106;28;20213;-70
2023/12/02 11:07:02;;;;;;;16.00;6.30;;;18.00;92.80;;;;;;4985564;28;20189;-68
2023/12/02 11:09:58;;;;;;;8.30;5.10;;;18.10;92.80;;;;;;4979723;28;20197;-71
2023/12/02 11:12:57;;;;;;;13.23;6.47;;;18.00;92.80;;;;;;4975453;28;20229;-69
2023/12/02 11:15:28;;;;;;;13.67;6.67;;;18.10;93.00;;;;;;4969271;28;20201;-69
2023/12/02 11:18:04;;;;;;;12.93;6.47;;;18.20;93.20;;;;;;4986782;28;20235;-70
2023/12/02 11:20:38;;;;;;;10.67;6.57;;;18.10;93.00;;;;;;4976897;28;20590;-69
2023/12/02 11:23:05;;;;;;;12.10;7.27;;;18.00;93.00;;;;;;4983989;28;20183;-70
2023/12/02 11:25:46;;;;;;;8.73;7.10;;;18.10;93.20;;;;;;4986427;28;20178;-68
2023/12/02 11:28:44;;;;;;;8.43;7.60;;;18.10;93.00;;;;;;4987470;28;20232;-67
2023/12/02 11:31:14;;;;;;;15.03;8.47;;;18.20;93.10;;;;;;4986732;28;20206;-68
2023/12/02 11:34:08;;;;;;;15.20;9.33;;;18.20;93.10;;;;;;4980606;28;20190;-69
2023/12/02 11:36:57;;;;;;;9.53;8.20;;;18.20;93.20;;;;;;4992166;28;20233;-68
2023/12/02 11:39:40;;;;;;;10.73;8.40;;;18.20;93.30;;;;;;4992947;28;20178;-71
2023/12/02 11:42:17;;;;;;;9.80;9.00;;;18.10;93.00;;;;;;4986001;28;20653;-67
2023/12/02 11:45:13;;;;;;;10.57;9.67;;;18.10;93.30;;;;;;4991561;28;20185;-69
2023/12/02 11:48:17;;;;;;;9.27;8.57;;;18.10;93.20;;;;;;4987355;28;20182;-71
2023/12/02 11:50:47;;;;;;;10.00;9.20;;;18.00;93.30;;;;;;4986306;28;20182;-68
2023/12/02 11:53:23;;;;;;;9.43;8.40;;;18.00;93.40;;;;;;4993253;28;20684;-67
2023/12/02 11:56:12;;;;;;;8.30;7.00;;;18.00;93.50;;;;;;4989631;28;20538;-67
2023/12/02 11:58:43;;;;;;;7.83;7.33;;;18.00;93.50;;;;;;4987832;28;20182;-69
2023/12/02 12:01:37;;;;;;;9.70;8.30;;;17.90;93.50;;;;;;4990296;28;20636;-66
2023/12/02 12:04:22;;;;;;;9.40;8.60;;;17.80;93.50;;;;;;4996995;28;20189;-68
2023/12/02 12:07:41;;;;;;;9.63;7.73;;;17.80;93.40;;;;;;4988121;28;20170;-69
2023/12/02 12:10:22;;;;;;;9.77;8.87;;;17.80;93.60;;;;;;4926485;29;20187;-70
2023/12/02 12:12:54;;;;;;;10.70;9.80;;;17.80;93.60;;;;;;4931029;29;20735;-69
2023/12/02 12:15:21;;;;;;;10.17;9.13;;;17.80;93.60;;;;;;4974942;28;20256;-69
2023/12/02 12:17:49;;;;;;;11.13;10.13;;;17.80;93.60;;;;;;4993807;28;20675;-68
2023/12/02 12:20:26;;;;;;;11.43;10.43;;;17.80;93.60;;;;;;4990750;28;20190;-69
2023/12/02 12:22:53;;;;;;;10.77;9.97;;;17.80;93.60;;;;;;4992599;28;20188;-68
2023/12/02 12:25:21;;;;;;;12.17;11.13;;;17.80;93.70;;;;;;4988427;28;20233;-69
2023/12/02 12:27:49;;;;;;;12.03;10.80;;;17.80;93.70;;;;;;4987653;28;20252;-68
2023/12/02 12:30:16;;;;;;;12.80;11.60;;;17.80;93.80;;;;;;4992526;28;20189;-69
2023/12/02 12:32:44;;;;;;;11.43;10.33;;;17.80;93.80;;;;;;4989392;28;20272;-68
2023/12/02 12:35:14;;;;;;;11.37;10.27;;;17.80;93.80;;;;;;4989325;28;20192;-68
2023/12/02 12:37:42;;;;;;;11.13;10.03;;;17.80;93.80;;;;;;4991148;28;20185;-68
2023/12/02 12:40:12;;;;;;;13.40;11.27;;;17.70;93.80;;;;;;4996691;28;20641;-68
2023/12/02 12:42:49;;;;;;;12.90;11.50;;;17.60;93.80;;;;;;4990748;28;20209;-68
2023/12/02 12:45:17;;;;;;;13.20;11.90;;;17.60;93.80;;;;;;4988394;28;20189;-68
2023/12/02 12:47:45;;;;;;;15.33;12.90;;;17.60;93.80;;;;;;4993206;28;20707;-68
2023/12/02 12:50:14;;;;;;;19.27;14.57;;;17.60;93.90;;;;;;4992377;28;20216;-68
2023/12/02 12:52:52;;;;;;;19.60;14.60;;;17.70;94.00;;;;;;4993282;28;20886;-68
2023/12/02 12:55:22;;;;;;;15.53;14.13;;;17.60;93.80;;;;;;4992703;28;20182;-68
2023/12/02 12:58:07;;;;;;;20.87;16.33;;;17.60;93.90;;;;;;4993828;28;20282;-70
2023/12/02 13:00:40;;;;;;;16.83;15.30;;;17.60;93.80;;;;;;4993705;28;20276;-70
2023/12/02 13:03:41;;;;;;;17.53;15.77;;;17.60;93.90;;;;;;4991980;28;20178;-69